Albert J Ellis Airport Jacksonville US
ICAO: KOAJ
IATA: OAJ
Category: Medium
Scheduled Services: No

Elevation: 94 ft
TransAlt. 18000 ft.

Airport Communications:
WILMINGTON APP/DEP:121.4
AWOS 3:124.475
CTAF/UNICOM:123

KOAJ Zoom In..

Runways:

(A) RW 05 length 7100 ft width 150 ft
ILS 108.70 / hdg 52

(B) RW 23 length 7100 ft width 150 ft
---- / hdg 232

Location; KOAJ
Day. 30 / Time. 22.56 Zulu
* Altimeter: 29.60
* Temperature: 17° c. 62.6°f.
* Wind from: 260° Speed 09 kn.
Dewpoint: 11° c.
Visibility: 10 Statute Miles.
Clouds: Scattered 3600 ft.

KOAJ 302256Z 26009KT 10SM SCT036 17/11 A2960 RMK AO2 SLP026 T01670106

Going to: --> -->


Wind From 260°
Speed 09 kn.

 
 
jpsmedia worldairports.se 2020   terms of use